createdAt,value
2024-04-08T00:01:13.036Z,101069.09
2024-04-08T00:03:39.723Z,101064.81
2024-04-08T00:06:06.283Z,101061.09
2024-04-08T00:08:32.954Z,101053.84
2024-04-08T00:11:05.894Z,101051.19
2024-04-08T00:13:32.768Z,101058.41
2024-04-08T00:16:02.377Z,101067.63
2024-04-08T00:18:28.971Z,101064.44
2024-04-08T00:21:05.448Z,101064.34
2024-04-08T00:23:35.310Z,101067.63
2024-04-08T00:26:06.238Z,101067.38
2024-04-08T00:28:35.119Z,101060.09
2024-04-08T00:31:03.430Z,101054.22
2024-04-08T00:33:31.888Z,101052.25
2024-04-08T00:35:58.931Z,101051.56
2024-04-08T00:38:25.911Z,101058.31
2024-04-08T00:40:52.666Z,101063.72
2024-04-08T00:43:19.306Z,101064.00
2024-04-08T00:45:49.702Z,101065.09
2024-04-08T00:48:16.372Z,101055.53
2024-04-08T00:50:50.687Z,101052.44
2024-04-08T00:53:18.509Z,101051.75
2024-04-08T00:55:48.264Z,101041.75
2024-04-08T00:58:17.612Z,101037.53
2024-04-08T01:00:44.297Z,101028.28
2024-04-08T01:03:11.985Z,101024.34
2024-04-08T01:05:39.160Z,101024.25
2024-04-08T01:08:05.976Z,101022.91
2024-04-08T01:10:32.871Z,101017.41
2024-04-08T01:12:59.468Z,101021.53
2024-04-08T01:15:27.118Z,101017.91
2024-04-08T01:17:54.398Z,101016.91
2024-04-08T01:20:20.972Z,101011.88
2024-04-08T01:22:50.056Z,101012.97
2024-04-08T01:25:16.658Z,101006.19
2024-04-08T01:27:43.513Z,101003.69
2024-04-08T01:30:10.519Z,101002.28
2024-04-08T01:32:37.161Z,101006.31
2024-04-08T01:35:04.936Z,101010.44
2024-04-08T01:37:31.559Z,101011.13
2024-04-08T01:39:58.166Z,101013.94
2024-04-08T01:42:24.800Z,101014.72
2024-04-08T01:44:51.340Z,101019.56
2024-04-08T01:47:17.927Z,101019.50
2024-04-08T01:49:44.565Z,101017.41
2024-04-08T01:52:11.204Z,101019.19
2024-04-08T01:54:37.816Z,101002.41
2024-04-08T01:57:04.524Z,101002.66
2024-04-08T01:59:31.118Z,100994.81
2024-04-08T02:01:57.713Z,100989.34
2024-04-08T02:04:24.416Z,100991.88
2024-04-08T02:06:50.997Z,101006.31
2024-04-08T02:09:17.755Z,100999.38
2024-04-08T02:11:44.411Z,100987.38
2024-04-08T02:14:11.076Z,100978.94
2024-04-08T02:16:37.656Z,100982.19
2024-04-08T02:19:04.250Z,100982.19
2024-04-08T02:21:30.835Z,100984.00
2024-04-08T02:23:57.408Z,100975.22
2024-04-08T02:26:25.407Z,100974.81
2024-04-08T02:28:51.986Z,100976.25
2024-04-08T02:31:18.611Z,100980.72
2024-04-08T02:33:46.958Z,100978.75
2024-04-08T02:36:13.701Z,100970.88
2024-04-08T02:38:40.367Z,100976.41
2024-04-08T02:41:07.127Z,100974.06
2024-04-08T02:43:34.064Z,100973.09
2024-04-08T02:46:00.717Z,100981.97
2024-04-08T02:48:27.297Z,100974.53
2024-04-08T02:50:53.908Z,100975.31
2024-04-08T02:53:20.553Z,100972.63
2024-04-08T02:55:47.136Z,100972.31
2024-04-08T02:58:13.761Z,100964.78
2024-04-08T03:00:40.599Z,100967.91
2024-04-08T03:03:07.993Z,100964.19
2024-04-08T03:05:34.685Z,100953.00
2024-04-08T03:08:01.501Z,100950.91
2024-04-08T03:10:28.134Z,100954.63
2024-04-08T03:12:54.957Z,100965.69
2024-04-08T03:15:21.584Z,100960.53
2024-04-08T03:17:48.318Z,100965.34
2024-04-08T03:20:15.140Z,100962.22
2024-04-08T03:22:41.719Z,100965.25
2024-04-08T03:25:08.623Z,100967.63
2024-04-08T03:27:35.214Z,100963.59
2024-04-08T03:30:01.857Z,100964.59
2024-04-08T03:32:28.412Z,100971.75
2024-04-08T03:34:54.999Z,100979.97
2024-04-08T03:37:26.631Z,100979.09
2024-04-08T03:39:53.693Z,100969.63
2024-04-08T03:42:23.370Z,100971.13
2024-04-08T03:44:50.342Z,100979.31
2024-04-08T03:47:17.088Z,100978.38
2024-04-08T03:49:43.837Z,100986.91
2024-04-08T03:52:10.455Z,100987.28
2024-04-08T03:54:37.019Z,100998.28
2024-04-08T03:57:03.834Z,100986.41
2024-04-08T03:59:30.559Z,100976.81
2024-04-08T04:01:57.163Z,100982.28
2024-04-08T04:04:25.524Z,100979.19
2024-04-08T04:06:52.116Z,100984.50
2024-04-08T04:09:18.692Z,100980.72
2024-04-08T04:11:45.250Z,100979.44
2024-04-08T04:14:11.883Z,100969.81
2024-04-08T04:16:38.440Z,100980.13
2024-04-08T04:19:05.095Z,100983.84
2024-04-08T04:21:31.739Z,100990.69
2024-04-08T04:23:58.345Z,100987.22
2024-04-08T04:26:24.989Z,100990.84
2024-04-08T04:28:51.582Z,100990.50
2024-04-08T04:31:18.202Z,100986.34
2024-04-08T04:33:45.502Z,100987.66
2024-04-08T04:36:12.117Z,100991.00
2024-04-08T04:38:38.761Z,100992.53
2024-04-08T04:41:07.289Z,100994.91
2024-04-08T04:43:34.564Z,100996.41
2024-04-08T04:46:01.663Z,101001.34
2024-04-08T04:48:28.594Z,101002.38
2024-04-08T04:50:55.485Z,101004.16
2024-04-08T04:53:22.308Z,101011.91
2024-04-08T04:55:55.598Z,101011.44
2024-04-08T04:58:22.976Z,101019.97
2024-04-08T05:00:51.211Z,101023.88
2024-04-08T05:03:21.027Z,101018.88
2024-04-08T05:05:57.929Z,101010.88
2024-04-08T05:08:25.171Z,101003.25
2024-04-08T05:10:52.083Z,101016.78
2024-04-08T05:13:19.685Z,101015.22
2024-04-08T05:15:59.516Z,101018.31
2024-04-08T05:18:26.570Z,101023.72
2024-04-08T05:20:54.006Z,101031.91
2024-04-08T05:23:24.531Z,101025.09
2024-04-08T05:25:51.863Z,101025.72
2024-04-08T05:28:18.552Z,101020.66
2024-04-08T05:30:45.345Z,101012.78
2024-04-08T05:33:12.069Z,101019.28
2024-04-08T05:35:41.521Z,101019.50
2024-04-08T05:38:08.876Z,101027.78
2024-04-08T05:40:37.045Z,101027.13
2024-04-08T05:43:06.863Z,101031.41
2024-04-08T05:45:34.142Z,101042.53
2024-04-08T05:48:01.195Z,101051.31
2024-04-08T05:50:27.801Z,101056.72
2024-04-08T05:52:54.589Z,101050.28
2024-04-08T05:55:21.202Z,101051.81
2024-04-08T05:57:47.840Z,101055.84
2024-04-08T06:00:17.386Z,101053.66
2024-04-08T06:02:44.078Z,101055.47
2024-04-08T06:05:11.425Z,101053.38
2024-04-08T06:07:38.022Z,101053.34
2024-04-08T06:10:05.020Z,101058.78
2024-04-08T06:12:31.633Z,101065.38
2024-04-08T06:14:58.324Z,101061.44
2024-04-08T06:17:24.993Z,101060.16
2024-04-08T06:19:51.587Z,101063.09
2024-04-08T06:22:18.171Z,101066.06
2024-04-08T06:24:44.747Z,101062.66
2024-04-08T06:27:12.049Z,101061.53
2024-04-08T06:29:38.790Z,101057.44
2024-04-08T06:32:05.775Z,101065.41
2024-04-08T06:34:32.412Z,101057.56
2024-04-08T06:36:59.023Z,101053.94
2024-04-08T06:39:25.629Z,101044.50
2024-04-08T06:41:52.213Z,101042.75
2024-04-08T06:44:18.855Z,101040.75
2024-04-08T06:46:45.448Z,101044.75
2024-04-08T06:49:12.233Z,101053.31
2024-04-08T06:51:38.825Z,101053.13
2024-04-08T06:54:05.811Z,101058.88
2024-04-08T06:56:32.478Z,101061.13
2024-04-08T06:58:59.188Z,101053.44
2024-04-08T07:01:26.355Z,101061.97
2024-04-08T07:03:52.907Z,101059.94
2024-04-08T07:06:19.606Z,101057.66
2024-04-08T07:08:46.200Z,101045.91
2024-04-08T07:11:12.803Z,101037.50
2024-04-08T07:13:39.537Z,101054.84
2024-04-08T07:16:06.311Z,101053.66
2024-04-08T07:18:32.936Z,101063.38
2024-04-08T07:20:59.665Z,101061.97
2024-04-08T07:23:26.377Z,101061.59
2024-04-08T07:25:52.967Z,101068.81
2024-04-08T07:28:19.561Z,101067.69
2024-04-08T07:30:46.136Z,101064.19
2024-04-08T07:33:12.838Z,101058.88
2024-04-08T07:35:39.537Z,101055.59
2024-04-08T07:38:06.328Z,101063.44
2024-04-08T07:40:33.046Z,101058.25
2024-04-08T07:42:59.634Z,101063.22
2024-04-08T07:45:26.227Z,101062.00
2024-04-08T07:47:52.896Z,101064.69
2024-04-08T07:50:19.534Z,101060.63
2024-04-08T07:52:46.176Z,101066.91
2024-04-08T07:55:12.746Z,101063.94
2024-04-08T07:57:39.399Z,101068.53
2024-04-08T08:00:08.929Z,101064.75
2024-04-08T08:02:35.726Z,101060.63
2024-04-08T08:05:02.369Z,101059.13
2024-04-08T08:07:28.970Z,101061.03
2024-04-08T08:09:55.598Z,101069.72
2024-04-08T08:12:22.234Z,101058.28
2024-04-08T08:14:48.836Z,101066.63
2024-04-08T08:17:15.540Z,101064.50
2024-04-08T08:19:42.212Z,101068.72
2024-04-08T08:22:08.905Z,101067.22
2024-04-08T08:24:36.551Z,101066.84
2024-04-08T08:27:03.264Z,101064.66
2024-04-08T08:29:30.574Z,101070.25
2024-04-08T08:32:00.348Z,101071.19
2024-04-08T08:34:28.390Z,101063.31
2024-04-08T08:36:55.040Z,101057.97
2024-04-08T08:39:21.823Z,101066.72
2024-04-08T08:41:53.423Z,101072.78
2024-04-08T08:44:21.448Z,101067.38
2024-04-08T08:46:49.316Z,101066.84
2024-04-08T08:49:18.112Z,101063.78
2024-04-08T08:51:44.913Z,101062.72
2024-04-08T08:54:11.606Z,101066.53
2024-04-08T08:56:38.966Z,101070.38
2024-04-08T08:59:08.379Z,101065.09
2024-04-08T09:01:35.020Z,101067.00
2024-04-08T09:04:08.760Z,101071.22
2024-04-08T09:06:37.232Z,101065.72
2024-04-08T09:09:06.263Z,101067.06
2024-04-08T09:11:32.977Z,101059.50
2024-04-08T09:14:08.754Z,101058.41
2024-04-08T09:16:35.390Z,101059.25
2024-04-08T09:19:03.102Z,101054.06
2024-04-08T09:21:29.919Z,101064.59
2024-04-08T09:24:07.790Z,101062.94
2024-04-08T09:26:35.356Z,101071.28
2024-04-08T09:29:02.673Z,101070.50
2024-04-08T09:31:29.749Z,101066.56
2024-04-08T09:33:57.603Z,101072.84
2024-04-08T09:36:24.806Z,101061.47
2024-04-08T09:38:53.775Z,101059.91
2024-04-08T09:41:22.302Z,101054.88
2024-04-08T09:43:49.634Z,101056.69
2024-04-08T09:46:17.353Z,101052.09
2024-04-08T09:48:45.583Z,101050.34
2024-04-08T09:51:14.774Z,101049.06
2024-04-08T09:53:41.743Z,101046.03
2024-04-08T09:56:21.368Z,101040.69
2024-04-08T09:59:12.202Z,101036.16
2024-04-08T10:01:39.488Z,101031.38
2024-04-08T10:04:20.718Z,101027.53
2024-04-08T10:06:48.727Z,101020.06
2024-04-08T10:09:16.901Z,101022.56
2024-04-08T10:11:47.402Z,101019.72
2024-04-08T10:14:18.430Z,101026.44
2024-04-08T10:16:45.735Z,101015.94
2024-04-08T10:19:12.514Z,101021.41
2024-04-08T10:21:39.305Z,101015.59
2024-04-08T10:24:06.920Z,101008.81
2024-04-08T10:26:37.980Z,101012.66
2024-04-08T10:29:06.375Z,101005.03
2024-04-08T10:31:32.929Z,101014.34
2024-04-08T10:33:59.568Z,101010.34
2024-04-08T10:36:27.637Z,101008.22
2024-04-08T10:38:54.242Z,101000.94
2024-04-08T10:41:20.895Z,101008.00
2024-04-08T10:43:47.476Z,101004.88
2024-04-08T10:46:19.216Z,100992.19
2024-04-08T10:48:46.190Z,100993.81
2024-04-08T10:51:14.249Z,100993.28
2024-04-08T10:53:41.566Z,100994.44
2024-04-08T10:56:09.173Z,100992.03
2024-04-08T10:58:35.752Z,100993.13
2024-04-08T11:01:05.430Z,101000.47
2024-04-08T11:03:32.624Z,101007.84
2024-04-08T11:05:59.487Z,100992.44
2024-04-08T11:08:26.317Z,100997.38
2024-04-08T11:10:54.030Z,100991.94
2024-04-08T11:13:21.042Z,100994.34
2024-04-08T11:15:50.913Z,100991.72
2024-04-08T11:18:20.441Z,100982.91
2024-04-08T11:20:47.901Z,100980.28
2024-04-08T11:23:15.467Z,100977.53
2024-04-08T11:25:42.157Z,100978.31
2024-04-08T11:28:10.098Z,100978.34
2024-04-08T11:30:38.792Z,100965.44
2024-04-08T11:33:06.118Z,100972.72
2024-04-08T11:35:32.826Z,100974.72
2024-04-08T11:38:06.980Z,100970.91
2024-04-08T11:40:39.447Z,100967.63
2024-04-08T11:43:06.088Z,100961.91
2024-04-08T11:45:33.481Z,100955.16
2024-04-08T11:48:00.261Z,100950.44
2024-04-08T11:50:26.890Z,100953.72
2024-04-08T11:52:54.155Z,100948.28
2024-04-08T11:55:20.884Z,100944.53
2024-04-08T11:57:47.495Z,100950.41
2024-04-08T12:00:19.463Z,100949.31
2024-04-08T12:02:46.581Z,100942.88
2024-04-08T12:05:13.488Z,100939.88
2024-04-08T12:07:42.014Z,100932.09
2024-04-08T12:10:10.968Z,100932.25
2024-04-08T12:12:37.886Z,100931.81
2024-04-08T12:15:06.321Z,100935.25
2024-04-08T12:17:33.371Z,100940.91
2024-04-08T12:19:59.938Z,100939.47
2024-04-08T12:22:26.548Z,100951.22
2024-04-08T12:24:53.140Z,100939.19
2024-04-08T12:27:21.394Z,100937.47
2024-04-08T12:29:48.085Z,100933.56
2024-04-08T12:32:15.349Z,100934.91
2024-04-08T12:34:42.209Z,100933.44
2024-04-08T12:37:08.859Z,100926.41
2024-04-08T12:39:35.815Z,100925.50
2024-04-08T12:42:02.523Z,100925.44
2024-04-08T12:44:29.143Z,100927.22
2024-04-08T12:46:55.848Z,100922.75
2024-04-08T12:49:25.969Z,100922.63
2024-04-08T12:51:52.576Z,100921.38
2024-04-08T12:54:19.452Z,100922.06
2024-04-08T12:56:46.307Z,100912.44
2024-04-08T12:59:12.956Z,100908.47
2024-04-08T13:01:39.622Z,100912.31
2024-04-08T13:04:06.311Z,100916.69
2024-04-08T13:06:33.232Z,100907.38
2024-04-08T13:08:59.981Z,100903.72
2024-04-08T13:11:27.753Z,100901.94
2024-04-08T13:13:54.363Z,100884.59
2024-04-08T13:16:21.067Z,100887.22
2024-04-08T13:18:47.703Z,100882.84
2024-04-08T13:21:14.411Z,100876.53
2024-04-08T13:23:41.091Z,100882.97
2024-04-08T13:26:11.221Z,100873.28
2024-04-08T13:28:37.886Z,100884.06
2024-04-08T13:31:04.832Z,100878.97
2024-04-08T13:33:31.629Z,100884.78
2024-04-08T13:35:58.509Z,100878.47
2024-04-08T13:38:25.135Z,100873.84
2024-04-08T13:40:51.745Z,100870.03
2024-04-08T13:43:19.018Z,100866.25
2024-04-08T13:45:45.721Z,100865.28
2024-04-08T13:48:12.469Z,100865.81
2024-04-08T13:50:39.180Z,100866.91
2024-04-08T13:53:05.916Z,100865.41
2024-04-08T13:55:34.906Z,100865.91
2024-04-08T13:58:03.041Z,100862.75
2024-04-08T14:00:29.764Z,100858.56
2024-04-08T14:02:56.509Z,100847.41
2024-04-08T14:05:23.178Z,100838.28
2024-04-08T14:07:50.154Z,100845.84
2024-04-08T14:10:16.863Z,100843.19
2024-04-08T14:12:43.487Z,100842.22
2024-04-08T14:15:10.325Z,100842.53
2024-04-08T14:17:37.425Z,100837.59
2024-04-08T14:20:04.524Z,100837.31
2024-04-08T14:22:31.119Z,100841.06
2024-04-08T14:24:58.371Z,100832.53
2024-04-08T14:27:25.244Z,100835.81
2024-04-08T14:29:55.986Z,100825.94
2024-04-08T14:32:27.744Z,100822.19
2024-04-08T14:34:54.509Z,100818.22
2024-04-08T14:37:31.769Z,100821.63
2024-04-08T14:40:08.345Z,100815.09
2024-04-08T14:42:35.030Z,100813.50
2024-04-08T14:45:04.707Z,100809.22
2024-04-08T14:47:32.418Z,100811.84
2024-04-08T14:49:59.192Z,100810.06
2024-04-08T14:52:32.992Z,100807.47
2024-04-08T14:55:03.956Z,100812.69
2024-04-08T14:57:30.864Z,100804.09
2024-04-08T14:59:57.568Z,100803.00
2024-04-08T15:02:24.615Z,100810.78
2024-04-08T15:04:52.198Z,100813.44
2024-04-08T15:07:26.252Z,100813.34
2024-04-08T15:09:55.150Z,100810.56
2024-04-08T15:12:21.901Z,100804.50
2024-04-08T15:14:48.620Z,100801.63
2024-04-08T15:17:15.370Z,100798.13
2024-04-08T15:19:43.215Z,100806.63
2024-04-08T15:22:09.919Z,100814.72
2024-04-08T15:24:36.644Z,100811.19
2024-04-08T15:27:03.566Z,100810.16
2024-04-08T15:29:30.198Z,100809.25
2024-04-08T15:31:58.192Z,100804.59
2024-04-08T15:34:25.022Z,100804.34
2024-04-08T15:36:52.346Z,100804.28
2024-04-08T15:39:19.114Z,100796.31
2024-04-08T15:41:45.677Z,100802.56
2024-04-08T15:44:12.238Z,100802.38
2024-04-08T15:46:38.930Z,100794.50
2024-04-08T15:49:05.822Z,100804.47
2024-04-08T15:51:32.546Z,100802.03
2024-04-08T15:53:59.435Z,100805.19
2024-04-08T15:56:26.237Z,100801.78
2024-04-08T15:58:53.111Z,100803.50
2024-04-08T16:01:20.935Z,100800.81
2024-04-08T16:03:47.889Z,100797.31
2024-04-08T16:06:15.534Z,100798.25
2024-04-08T16:08:44.339Z,100798.09
2024-04-08T16:11:18.703Z,100796.94
2024-04-08T16:13:45.344Z,100796.47
2024-04-08T16:16:12.106Z,100795.66
2024-04-08T16:18:38.768Z,100792.34
2024-04-08T16:21:05.670Z,100800.28
2024-04-08T16:23:47.964Z,100802.81
2024-04-08T16:26:22.069Z,100805.19
2024-04-08T16:28:57.931Z,100804.94
2024-04-08T16:31:30.887Z,100800.31
2024-04-08T16:33:57.764Z,100801.97
2024-04-08T16:36:24.562Z,100800.31
2024-04-08T16:38:51.223Z,100800.00
2024-04-08T16:41:17.868Z,100797.03
2024-04-08T16:43:47.208Z,100796.06
2024-04-08T16:46:16.776Z,100796.56
2024-04-08T16:48:43.453Z,100804.88
2024-04-08T16:51:10.201Z,100801.31
2024-04-08T16:53:38.063Z,100799.50
2024-04-08T16:56:05.109Z,100792.34
2024-04-08T16:58:32.440Z,100803.53
2024-04-08T17:00:59.325Z,100799.72
2024-04-08T17:03:28.707Z,100805.56
2024-04-08T17:06:02.661Z,100808.69
2024-04-08T17:08:30.811Z,100806.69
2024-04-08T17:11:01.794Z,100802.84
2024-04-08T17:13:31.068Z,100800.88
2024-04-08T17:15:58.482Z,100800.78
2024-04-08T17:18:25.485Z,100794.28
2024-04-08T17:20:56.686Z,100790.50
2024-04-08T17:23:26.511Z,100790.19
2024-04-08T17:25:57.560Z,100799.38
2024-04-08T17:28:25.003Z,100803.44
2024-04-08T17:31:02.366Z,100795.91
2024-04-08T17:33:30.692Z,100791.97
2024-04-08T17:36:01.565Z,100798.75
2024-04-08T17:38:29.639Z,100796.81
2024-04-08T17:41:00.152Z,100803.41
2024-04-08T17:43:36.918Z,100805.63
2024-04-08T17:46:05.551Z,100804.31
2024-04-08T17:48:34.826Z,100803.22
2024-04-08T17:51:03.704Z,100799.47
2024-04-08T17:53:31.932Z,100805.22
2024-04-08T17:55:59.315Z,100803.25
2024-04-08T17:58:27.246Z,100804.00
2024-04-08T18:00:54.282Z,100803.56
2024-04-08T18:03:21.257Z,100794.66
2024-04-08T18:05:47.958Z,100799.78
2024-04-08T18:08:15.728Z,100794.66
2024-04-08T18:10:42.467Z,100801.53
2024-04-08T18:13:09.253Z,100802.94
2024-04-08T18:15:36.921Z,100800.19
2024-04-08T18:18:03.888Z,100797.44
2024-04-08T18:20:30.556Z,100797.13
2024-04-08T18:22:57.516Z,100811.56
2024-04-08T18:25:24.128Z,100803.59
2024-04-08T18:27:50.749Z,100799.91
2024-04-08T18:30:17.554Z,100802.38
2024-04-08T18:32:44.270Z,100808.41
2024-04-08T18:35:11.114Z,100811.69
2024-04-08T18:37:38.200Z,100814.25
2024-04-08T18:40:05.337Z,100814.31
2024-04-08T18:42:31.947Z,100820.28
2024-04-08T18:44:58.671Z,100816.44
2024-04-08T18:47:25.358Z,100815.41
2024-04-08T18:49:52.149Z,100811.97
2024-04-08T18:52:18.796Z,100820.47
2024-04-08T18:54:45.853Z,100821.31
2024-04-08T18:57:13.541Z,100829.88
2024-04-08T18:59:41.170Z,100826.28
2024-04-08T19:02:08.425Z,100837.09
2024-04-08T19:04:35.226Z,100834.31
2024-04-08T19:07:01.950Z,100834.31
2024-04-08T19:09:29.047Z,100846.59
2024-04-08T19:11:55.828Z,100834.81
2024-04-08T19:14:22.714Z,100842.91
2024-04-08T19:16:53.851Z,100847.47
2024-04-08T19:19:29.770Z,100850.75
2024-04-08T19:21:56.568Z,100857.56
2024-04-08T19:24:23.180Z,100853.09
2024-04-08T19:26:50.280Z,100862.44
2024-04-08T19:29:17.016Z,100871.00
2024-04-08T19:31:43.639Z,100870.59
2024-04-08T19:34:10.332Z,100876.22
2024-04-08T19:36:37.222Z,100876.44
2024-04-08T19:39:04.129Z,100884.00
2024-04-08T19:41:30.982Z,100875.56
2024-04-08T19:43:57.641Z,100877.66
2024-04-08T19:46:25.572Z,100885.31
2024-04-08T19:48:52.598Z,100869.31
2024-04-08T19:51:23.187Z,100865.47
2024-04-08T19:53:54.507Z,100859.69
2024-04-08T19:56:23.086Z,100858.31
2024-04-08T19:58:50.785Z,100866.97
2024-04-08T20:01:17.686Z,100857.72
2024-04-08T20:03:44.753Z,100871.66
2024-04-08T20:06:11.653Z,100869.59
2024-04-08T20:08:39.850Z,100878.84
2024-04-08T20:11:10.544Z,100875.25
2024-04-08T20:13:38.298Z,100878.38
2024-04-08T20:16:24.502Z,100885.03
2024-04-08T20:18:52.497Z,100881.63
2024-04-08T20:21:26.500Z,100882.41
2024-04-08T20:23:54.146Z,100872.44
2024-04-08T20:26:21.037Z,100878.50
2024-04-08T20:28:47.701Z,100879.44
2024-04-08T20:31:14.434Z,100873.63
2024-04-08T20:33:41.205Z,100871.09
2024-04-08T20:36:09.745Z,100876.94
2024-04-08T20:38:37.064Z,100873.16
2024-04-08T20:41:08.429Z,100868.78
2024-04-08T20:43:36.671Z,100877.66
2024-04-08T20:46:03.840Z,100873.72
2024-04-08T20:48:31.184Z,100873.63
2024-04-08T20:50:59.955Z,100880.44
2024-04-08T20:53:29.828Z,100879.19
2024-04-08T20:56:01.885Z,100879.34
2024-04-08T20:58:31.381Z,100874.69
2024-04-08T21:00:58.708Z,100868.56
2024-04-08T21:03:26.882Z,100872.97
2024-04-08T21:06:04.077Z,100870.28
2024-04-08T21:08:31.065Z,100869.00
2024-04-08T21:11:02.242Z,100864.69
2024-04-08T21:13:31.125Z,100861.72
2024-04-08T21:15:59.057Z,100860.13
2024-04-08T21:18:26.129Z,100858.41
2024-04-08T21:21:09.338Z,100856.31
2024-04-08T21:23:37.095Z,100855.16
2024-04-08T21:26:11.331Z,100854.88
2024-04-08T21:28:39.030Z,100847.78
2024-04-08T21:31:06.127Z,100860.78
2024-04-08T21:33:34.401Z,100851.25
2024-04-08T21:36:01.309Z,100859.00
2024-04-08T21:38:28.302Z,100860.34
2024-04-08T21:40:56.797Z,100863.34
2024-04-08T21:43:24.116Z,100857.81
2024-04-08T21:46:02.458Z,100856.22
2024-04-08T21:48:29.836Z,100863.03
2024-04-08T21:50:59.094Z,100858.81
2024-04-08T21:53:29.713Z,100864.28
2024-04-08T21:55:57.111Z,100855.34
2024-04-08T21:58:24.462Z,100862.47
2024-04-08T22:00:54.011Z,100862.47
2024-04-08T22:03:20.762Z,100846.66
2024-04-08T22:05:47.425Z,100850.09
2024-04-08T22:08:15.977Z,100845.91
2024-04-08T22:10:42.772Z,100846.09
2024-04-08T22:13:10.673Z,100843.59
2024-04-08T22:15:40.824Z,100842.31
2024-04-08T22:18:09.393Z,100831.69
2024-04-08T22:20:37.257Z,100830.94
2024-04-08T22:23:07.557Z,100839.34
2024-04-08T22:25:35.391Z,100841.16
2024-04-08T22:28:02.508Z,100844.97
2024-04-08T22:30:29.291Z,100841.88
2024-04-08T22:32:56.450Z,100835.25
2024-04-08T22:35:23.239Z,100839.91
2024-04-08T22:37:50.576Z,100826.16
2024-04-08T22:40:17.306Z,100834.88
2024-04-08T22:42:43.977Z,100839.59
2024-04-08T22:45:10.900Z,100839.59
2024-04-08T22:47:37.665Z,100841.41
2024-04-08T22:50:04.665Z,100846.78
2024-04-08T22:52:31.965Z,100844.78
2024-04-08T22:54:58.599Z,100844.19
2024-04-08T22:57:25.342Z,100839.38
2024-04-08T22:59:52.112Z,100842.16
2024-04-08T23:02:18.828Z,100841.75
2024-04-08T23:04:46.223Z,100841.75
2024-04-08T23:07:12.856Z,100841.53
2024-04-08T23:09:40.022Z,100843.75
2024-04-08T23:12:07.205Z,100834.41
2024-04-08T23:14:33.937Z,100839.78
2024-04-08T23:17:00.579Z,100837.91
2024-04-08T23:19:27.610Z,100841.59
2024-04-08T23:21:54.317Z,100829.72
2024-04-08T23:24:20.943Z,100828.94
2024-04-08T23:26:47.527Z,100837.06
2024-04-08T23:29:14.172Z,100828.69
2024-04-08T23:31:42.237Z,100830.72
2024-04-08T23:34:09.443Z,100836.09
2024-04-08T23:36:36.370Z,100836.69
2024-04-08T23:39:03.179Z,100831.38
2024-04-08T23:41:30.299Z,100827.38
2024-04-08T23:43:56.860Z,100811.41
2024-04-08T23:46:23.539Z,100811.53
2024-04-08T23:48:50.275Z,100806.13
2024-04-08T23:51:17.042Z,100799.13
2024-04-08T23:53:44.707Z,100799.50
2024-04-08T23:56:11.372Z,100796.84
2024-04-08T23:58:37.930Z,100794.94
